sensor_id;sensor_type;location;lat;lon;timestamp;temperature;humidity
12811;DHT22;6470;47.654;7.896;2023-02-18T00:00:59;9.90;99.90
12811;DHT22;6470;47.654;7.896;2023-02-18T00:03:27;12.40;99.90
12811;DHT22;6470;47.654;7.896;2023-02-18T00:05:53;12.00;99.90
12811;DHT22;6470;47.654;7.896;2023-02-18T00:08:20;10.80;99.90
12811;DHT22;6470;47.654;7.896;2023-02-18T00:10:46;11.70;99.90
12811;DHT22;6470;47.654;7.896;2023-02-18T00:13:12;11.70;99.90
12811;DHT22;6470;47.654;7.896;2023-02-18T00:15:38;12.50;99.90
12811;DHT22;6470;47.654;7.896;2023-02-18T00:18:04;12.40;99.90
12811;DHT22;6470;47.654;7.896;2023-02-18T00:20:31;11.90;99.90
12811;DHT22;6470;47.654;7.896;2023-02-18T00:22:58;11.70;99.90
12811;DHT22;6470;47.654;7.896;2023-02-18T00:25:24;11.40;99.90
12811;DHT22;6470;47.654;7.896;2023-02-18T00:27:50;12.00;99.90
12811;DHT22;6470;47.654;7.896;2023-02-18T00:30:16;12.00;99.90
12811;DHT22;6470;47.654;7.896;2023-02-18T00:32:41;9.70;99.90
12811;DHT22;6470;47.654;7.896;2023-02-18T00:35:07;11.80;99.90
12811;DHT22;6470;47.654;7.896;2023-02-18T00:37:33;11.50;99.90
12811;DHT22;6470;47.654;7.896;2023-02-18T00:39:59;11.50;99.90
12811;DHT22;6470;47.654;7.896;2023-02-18T00:42:24;12.20;99.90
12811;DHT22;6470;47.654;7.896;2023-02-18T00:44:50;11.90;99.90
12811;DHT22;6470;47.654;7.896;2023-02-18T00:47:16;12.20;99.90
12811;DHT22;6470;47.654;7.896;2023-02-18T00:49:41;10.00;99.90
12811;DHT22;6470;47.654;7.896;2023-02-18T00:52:07;11.70;99.90
12811;DHT22;6470;47.654;7.896;2023-02-18T00:54:33;12.20;99.90
12811;DHT22;6470;47.654;7.896;2023-02-18T00:56:58;11.90;99.90
12811;DHT22;6470;47.654;7.896;2023-02-18T00:59:24;11.90;99.90
12811;DHT22;6470;47.654;7.896;2023-02-18T01:01:50;12.10;99.90
12811;DHT22;6470;47.654;7.896;2023-02-18T01:04:15;12.00;99.90
12811;DHT22;6470;47.654;7.896;2023-02-18T01:06:41;10.10;99.90
12811;DHT22;6470;47.654;7.896;2023-02-18T01:09:07;12.70;99.90
12811;DHT22;6470;47.654;7.896;2023-02-18T01:11:33;12.00;99.90
12811;DHT22;6470;47.654;7.896;2023-02-18T01:13:58;12.50;99.90
12811;DHT22;6470;47.654;7.896;2023-02-18T01:16:24;12.10;99.90
12811;DHT22;6470;47.654;7.896;2023-02-18T01:18:50;11.90;99.90
12811;DHT22;6470;47.654;7.896;2023-02-18T01:21:15;12.00;99.90
12811;DHT22;6470;47.654;7.896;2023-02-18T01:23:41;12.10;99.90
12811;DHT22;6470;47.654;7.896;2023-02-18T01:26:08;12.00;99.90
12811;DHT22;6470;47.654;7.896;2023-02-18T01:28:34;10.50;99.90
12811;DHT22;6470;47.654;7.896;2023-02-18T01:31:05;10.20;99.90
12811;DHT22;6470;47.654;7.896;2023-02-18T01:35:57;12.10;99.90
12811;DHT22;6470;47.654;7.896;2023-02-18T01:38:23;10.20;99.90
12811;DHT22;6470;47.654;7.896;2023-02-18T01:40:51;12.20;99.90
12811;DHT22;6470;47.654;7.896;2023-02-18T01:43:18;11.60;99.90
12811;DHT22;6470;47.654;7.896;2023-02-18T01:46:02;11.30;99.90
12811;DHT22;6470;47.654;7.896;2023-02-18T01:48:40;10.70;99.90
12811;DHT22;6470;47.654;7.896;2023-02-18T01:51:30;10.70;99.90
12811;DHT22;6470;47.654;7.896;2023-02-18T01:54:09;11.70;99.90
12811;DHT22;6470;47.654;7.896;2023-02-18T01:56:50;12.10;99.90
12811;DHT22;6470;47.654;7.896;2023-02-18T01:59:26;12.10;99.90
12811;DHT22;6470;47.654;7.896;2023-02-18T02:01:53;12.20;99.90
12811;DHT22;6470;47.654;7.896;2023-02-18T02:04:19;10.60;99.90
12811;DHT22;6470;47.654;7.896;2023-02-18T02:09:13;12.30;99.90
12811;DHT22;6470;47.654;7.896;2023-02-18T02:26:24;11.90;99.90
12811;DHT22;6470;47.654;7.896;2023-02-18T02:45:18;10.00;99.90
12811;DHT22;6470;47.654;7.896;2023-02-18T02:50:20;10.30;99.90
12811;DHT22;6470;47.654;7.896;2023-02-18T02:52:57;10.70;99.90
12811;DHT22;6470;47.654;7.896;2023-02-18T02:55:24;10.10;99.90
12811;DHT22;6470;47.654;7.896;2023-02-18T02:57:54;10.00;99.90
12811;DHT22;6470;47.654;7.896;2023-02-18T03:00:32;12.10;99.90
12811;DHT22;6470;47.654;7.896;2023-02-18T03:09:00;10.50;99.90
12811;DHT22;6470;47.654;7.896;2023-02-18T03:11:40;12.50;99.90
12811;DHT22;6470;47.654;7.896;2023-02-18T03:14:26;10.10;99.90
12811;DHT22;6470;47.654;7.896;2023-02-18T03:17:20;10.00;99.90
12811;DHT22;6470;47.654;7.896;2023-02-18T03:20:12;9.90;99.90
12811;DHT22;6470;47.654;7.896;2023-02-18T03:22:44;10.20;99.90
12811;DHT22;6470;47.654;7.896;2023-02-18T03:25:12;10.10;99.90
12811;DHT22;6470;47.654;7.896;2023-02-18T03:27:49;10.50;99.90
12811;DHT22;6470;47.654;7.896;2023-02-18T03:30:25;10.20;99.90
12811;DHT22;6470;47.654;7.896;2023-02-18T03:32:56;10.30;99.90
12811;DHT22;6470;47.654;7.896;2023-02-18T03:35:24;10.40;99.90
12811;DHT22;6470;47.654;7.896;2023-02-18T03:37:54;10.30;99.90
12811;DHT22;6470;47.654;7.896;2023-02-18T03:40:29;9.90;99.90
12811;DHT22;6470;47.654;7.896;2023-02-18T03:42:59;12.30;99.90
12811;DHT22;6470;47.654;7.896;2023-02-18T03:45:26;10.20;99.90
12811;DHT22;6470;47.654;7.896;2023-02-18T03:47:52;10.10;99.90
12811;DHT22;6470;47.654;7.896;2023-02-18T03:50:18;10.80;99.90
12811;DHT22;6470;47.654;7.896;2023-02-18T03:52:44;10.70;99.90
12811;DHT22;6470;47.654;7.896;2023-02-18T03:55:10;10.60;99.90
12811;DHT22;6470;47.654;7.896;2023-02-18T04:00:04;9.70;99.90
12811;DHT22;6470;47.654;7.896;2023-02-18T04:02:32;9.90;99.90
12811;DHT22;6470;47.654;7.896;2023-02-18T04:09:49;12.50;99.90
12811;DHT22;6470;47.654;7.896;2023-02-18T04:12:15;12.60;99.90
12811;DHT22;6470;47.654;7.896;2023-02-18T04:14:41;10.90;99.90
12811;DHT22;6470;47.654;7.896;2023-02-18T04:17:07;10.80;99.90
12811;DHT22;6470;47.654;7.896;2023-02-18T04:19:32;10.00;99.90
12811;DHT22;6470;47.654;7.896;2023-02-18T04:21:58;10.30;99.90
12811;DHT22;6470;47.654;7.896;2023-02-18T04:24:24;9.70;99.90
12811;DHT22;6470;47.654;7.896;2023-02-18T04:31:41;10.60;99.90
12811;DHT22;6470;47.654;7.896;2023-02-18T04:34:07;9.90;99.90
12811;DHT22;6470;47.654;7.896;2023-02-18T04:36:33;9.60;99.90
12811;DHT22;6470;47.654;7.896;2023-02-18T04:38:58;10.00;99.90
12811;DHT22;6470;47.654;7.896;2023-02-18T04:41:24;10.40;99.90
12811;DHT22;6470;47.654;7.896;2023-02-18T04:43:50;10.10;99.90
12811;DHT22;6470;47.654;7.896;2023-02-18T04:46:16;10.50;99.90
12811;DHT22;6470;47.654;7.896;2023-02-18T04:48:42;10.50;99.90
12811;DHT22;6470;47.654;7.896;2023-02-18T04:51:08;9.80;99.90
12811;DHT22;6470;47.654;7.896;2023-02-18T04:53:34;10.30;99.90
12811;DHT22;6470;47.654;7.896;2023-02-18T04:56:00;10.60;99.90
12811;DHT22;6470;47.654;7.896;2023-02-18T04:58:25;10.30;99.90
12811;DHT22;6470;47.654;7.896;2023-02-18T05:00:51;9.80;99.90
12811;DHT22;6470;47.654;7.896;2023-02-18T05:03:18;9.60;99.90
12811;DHT22;6470;47.654;7.896;2023-02-18T05:05:44;10.00;99.90
12811;DHT22;6470;47.654;7.896;2023-02-18T05:08:10;9.90;99.90
12811;DHT22;6470;47.654;7.896;2023-02-18T05:10:36;10.50;99.90
12811;DHT22;6470;47.654;7.896;2023-02-18T05:13:02;10.20;99.90
12811;DHT22;6470;47.654;7.896;2023-02-18T05:15:28;10.30;99.90
12811;DHT22;6470;47.654;7.896;2023-02-18T05:17:54;9.60;99.90
12811;DHT22;6470;47.654;7.896;2023-02-18T05:20:19;10.30;99.90
12811;DHT22;6470;47.654;7.896;2023-02-18T05:22:45;10.70;99.90
12811;DHT22;6470;47.654;7.896;2023-02-18T05:25:11;10.00;99.90
12811;DHT22;6470;47.654;7.896;2023-02-18T05:27:37;10.70;99.90
12811;DHT22;6470;47.654;7.896;2023-02-18T05:30:03;10.00;99.90
12811;DHT22;6470;47.654;7.896;2023-02-18T05:32:29;10.80;99.90
12811;DHT22;6470;47.654;7.896;2023-02-18T05:34:55;10.20;99.90
12811;DHT22;6470;47.654;7.896;2023-02-18T05:37:20;10.20;99.90
12811;DHT22;6470;47.654;7.896;2023-02-18T05:39:46;11.00;99.90
12811;DHT22;6470;47.654;7.896;2023-02-18T05:42:12;9.60;99.90
12811;DHT22;6470;47.654;7.896;2023-02-18T05:44:38;10.60;99.90
12811;DHT22;6470;47.654;7.896;2023-02-18T05:47:06;10.20;99.90
12811;DHT22;6470;47.654;7.896;2023-02-18T05:49:33;10.50;99.90
12811;DHT22;6470;47.654;7.896;2023-02-18T05:52:00;10.00;99.90
12811;DHT22;6470;47.654;7.896;2023-02-18T05:54:25;9.70;99.90
12811;DHT22;6470;47.654;7.896;2023-02-18T05:59:17;9.80;99.90
12811;DHT22;6470;47.654;7.896;2023-02-18T06:01:44;10.00;99.90
12811;DHT22;6470;47.654;7.896;2023-02-18T06:04:10;9.90;99.90
12811;DHT22;6470;47.654;7.896;2023-02-18T06:06:36;9.60;99.90
12811;DHT22;6470;47.654;7.896;2023-02-18T06:09:02;8.90;99.90
12811;DHT22;6470;47.654;7.896;2023-02-18T06:13:54;9.50;99.90
12811;DHT22;6470;47.654;7.896;2023-02-18T06:18:46;10.00;99.90
12811;DHT22;6470;47.654;7.896;2023-02-18T06:21:12;7.50;99.90
12811;DHT22;6470;47.654;7.896;2023-02-18T06:23:37;9.50;99.90
12811;DHT22;6470;47.654;7.896;2023-02-18T06:26:03;8.90;99.90
12811;DHT22;6470;47.654;7.896;2023-02-18T06:28:29;9.50;99.90
12811;DHT22;6470;47.654;7.896;2023-02-18T06:30:55;9.50;99.90
12811;DHT22;6470;47.654;7.896;2023-02-18T06:33:21;9.60;99.90
12811;DHT22;6470;47.654;7.896;2023-02-18T06:36:01;9.60;99.90
12811;DHT22;6470;47.654;7.896;2023-02-18T06:38:27;9.20;99.90
12811;DHT22;6470;47.654;7.896;2023-02-18T06:43:20;9.70;99.90
12811;DHT22;6470;47.654;7.896;2023-02-18T06:45:45;9.80;99.90
12811;DHT22;6470;47.654;7.896;2023-02-18T06:48:12;9.70;99.90
12811;DHT22;6470;47.654;7.896;2023-02-18T06:50:39;9.70;99.90
12811;DHT22;6470;47.654;7.896;2023-02-18T06:55:31;10.10;99.90
12811;DHT22;6470;47.654;7.896;2023-02-18T06:57:57;8.30;99.90
12811;DHT22;6470;47.654;7.896;2023-02-18T07:00:23;9.20;99.90
12811;DHT22;6470;47.654;7.896;2023-02-18T07:02:48;9.50;99.90
12811;DHT22;6470;47.654;7.896;2023-02-18T07:05:14;7.80;99.90
12811;DHT22;6470;47.654;7.896;2023-02-18T07:07:40;9.50;99.90
12811;DHT22;6470;47.654;7.896;2023-02-18T07:10:07;9.60;99.90
12811;DHT22;6470;47.654;7.896;2023-02-18T07:12:32;8.90;99.90
12811;DHT22;6470;47.654;7.896;2023-02-18T07:14:58;9.50;99.90
12811;DHT22;6470;47.654;7.896;2023-02-18T07:17:24;9.90;99.90
12811;DHT22;6470;47.654;7.896;2023-02-18T07:19:50;9.60;99.90
12811;DHT22;6470;47.654;7.896;2023-02-18T07:22:16;9.50;99.90
12811;DHT22;6470;47.654;7.896;2023-02-18T07:24:42;10.20;99.90
12811;DHT22;6470;47.654;7.896;2023-02-18T07:27:07;9.80;99.90
12811;DHT22;6470;47.654;7.896;2023-02-18T07:29:33;9.50;99.90
12811;DHT22;6470;47.654;7.896;2023-02-18T07:34:26;9.30;99.90
12811;DHT22;6470;47.654;7.896;2023-02-18T07:36:52;9.50;99.90
12811;DHT22;6470;47.654;7.896;2023-02-18T07:39:18;9.60;99.90
12811;DHT22;6470;47.654;7.896;2023-02-18T07:41:46;8.90;99.90
12811;DHT22;6470;47.654;7.896;2023-02-18T07:44:13;8.80;99.90
12811;DHT22;6470;47.654;7.896;2023-02-18T07:46:40;9.90;99.90
12811;DHT22;6470;47.654;7.896;2023-02-18T07:49:06;9.70;99.90
12811;DHT22;6470;47.654;7.896;2023-02-18T07:51:32;9.50;99.90
12811;DHT22;6470;47.654;7.896;2023-02-18T07:53:58;9.60;99.90
12811;DHT22;6470;47.654;7.896;2023-02-18T07:56:23;9.70;99.90
12811;DHT22;6470;47.654;7.896;2023-02-18T08:01:15;9.70;99.90
12811;DHT22;6470;47.654;7.896;2023-02-18T08:06:12;9.60;99.90
12811;DHT22;6470;47.654;7.896;2023-02-18T08:08:40;10.80;99.90
12811;DHT22;6470;47.654;7.896;2023-02-18T08:11:06;10.20;99.90
12811;DHT22;6470;47.654;7.896;2023-02-18T08:13:32;10.80;99.90
12811;DHT22;6470;47.654;7.896;2023-02-18T08:15:58;10.30;99.90
12811;DHT22;6470;47.654;7.896;2023-02-18T08:18:25;10.40;99.90
12811;DHT22;6470;47.654;7.896;2023-02-18T08:20:51;10.40;99.90
12811;DHT22;6470;47.654;7.896;2023-02-18T08:23:21;9.80;99.90
12811;DHT22;6470;47.654;7.896;2023-02-18T08:25:52;9.50;99.90
12811;DHT22;6470;47.654;7.896;2023-02-18T08:28:19;9.90;99.90
12811;DHT22;6470;47.654;7.896;2023-02-18T08:30:45;10.30;99.90
12811;DHT22;6470;47.654;7.896;2023-02-18T08:33:11;10.30;99.90
12811;DHT22;6470;47.654;7.896;2023-02-18T08:35:37;9.80;99.90
12811;DHT22;6470;47.654;7.896;2023-02-18T08:38:03;9.80;99.90
12811;DHT22;6470;47.654;7.896;2023-02-18T08:40:29;10.50;99.90
12811;DHT22;6470;47.654;7.896;2023-02-18T08:42:54;12.10;99.90
12811;DHT22;6470;47.654;7.896;2023-02-18T08:45:21;10.70;99.90
12811;DHT22;6470;47.654;7.896;2023-02-18T08:50:13;12.20;99.90
12811;DHT22;6470;47.654;7.896;2023-02-18T08:52:38;10.80;99.90
12811;DHT22;6470;47.654;7.896;2023-02-18T08:55:05;11.90;99.90
12811;DHT22;6470;47.654;7.896;2023-02-18T08:57:30;12.00;99.90
12811;DHT22;6470;47.654;7.896;2023-02-18T08:59:56;10.90;99.90
12811;DHT22;6470;47.654;7.896;2023-02-18T09:02:22;10.20;99.90
12811;DHT22;6470;47.654;7.896;2023-02-18T09:04:48;12.30;99.90
12811;DHT22;6470;47.654;7.896;2023-02-18T09:07:13;12.70;99.90
12811;DHT22;6470;47.654;7.896;2023-02-18T09:09:39;10.90;99.90
12811;DHT22;6470;47.654;7.896;2023-02-18T09:12:06;11.70;99.90
12811;DHT22;6470;47.654;7.896;2023-02-18T09:16:59;12.00;99.90
12811;DHT22;6470;47.654;7.896;2023-02-18T09:21:51;12.20;99.90
12811;DHT22;6470;47.654;7.896;2023-02-18T09:24:18;11.60;99.90
12811;DHT22;6470;47.654;7.896;2023-02-18T09:29:10;12.20;99.90
12811;DHT22;6470;47.654;7.896;2023-02-18T09:31:36;12.60;99.90
12811;DHT22;6470;47.654;7.896;2023-02-18T09:34:04;14.80;99.90
12811;DHT22;6470;47.654;7.896;2023-02-18T09:36:30;11.80;99.90
12811;DHT22;6470;47.654;7.896;2023-02-18T09:38:57;11.90;99.90
12811;DHT22;6470;47.654;7.896;2023-02-18T09:41:42;14.70;99.90
12811;DHT22;6470;47.654;7.896;2023-02-18T09:44:24;12.10;99.90
12811;DHT22;6470;47.654;7.896;2023-02-18T09:46:53;12.00;99.90
12811;DHT22;6470;47.654;7.896;2023-02-18T09:49:25;12.00;99.90
12811;DHT22;6470;47.654;7.896;2023-02-18T09:51:56;14.60;99.90
12811;DHT22;6470;47.654;7.896;2023-02-18T09:54:26;10.10;99.90
12811;DHT22;6470;47.654;7.896;2023-02-18T09:56:52;12.10;99.90
12811;DHT22;6470;47.654;7.896;2023-02-18T09:59:21;15.10;99.90
12811;DHT22;6470;47.654;7.896;2023-02-18T10:01:50;12.20;99.90
12811;DHT22;6470;47.654;7.896;2023-02-18T10:04:21;12.20;99.90
12811;DHT22;6470;47.654;7.896;2023-02-18T10:06:50;12.20;99.90
12811;DHT22;6470;47.654;7.896;2023-02-18T10:09:27;15.40;99.90
12811;DHT22;6470;47.654;7.896;2023-02-18T10:12:06;12.20;99.90
12811;DHT22;6470;47.654;7.896;2023-02-18T10:19:37;12.30;99.90
12811;DHT22;6470;47.654;7.896;2023-02-18T10:22:08;14.30;99.90
12811;DHT22;6470;47.654;7.896;2023-02-18T10:24:41;14.70;99.90
12811;DHT22;6470;47.654;7.896;2023-02-18T10:27:09;12.30;99.90
12811;DHT22;6470;47.654;7.896;2023-02-18T10:34:53;15.10;99.90
12811;DHT22;6470;47.654;7.896;2023-02-18T10:46:09;12.40;99.90
12811;DHT22;6470;47.654;7.896;2023-02-18T10:50:48;12.60;99.90
12811;DHT22;6470;47.654;7.896;2023-02-18T10:53:36;12.60;99.90
12811;DHT22;6470;47.654;7.896;2023-02-18T10:56:05;15.40;99.90
12811;DHT22;6470;47.654;7.896;2023-02-18T10:58:40;12.60;99.90
12811;DHT22;6470;47.654;7.896;2023-02-18T11:01:13;15.30;99.90
12811;DHT22;6470;47.654;7.896;2023-02-18T11:06:14;12.60;99.90
12811;DHT22;6470;47.654;7.896;2023-02-18T11:08:43;12.70;99.90
12811;DHT22;6470;47.654;7.896;2023-02-18T11:14:12;12.70;99.90
12811;DHT22;6470;47.654;7.896;2023-02-18T11:16:45;14.90;99.90
12811;DHT22;6470;47.654;7.896;2023-02-18T11:19:31;12.90;99.90
12811;DHT22;6470;47.654;7.896;2023-02-18T11:22:33;13.00;99.90
12811;DHT22;6470;47.654;7.896;2023-02-18T11:25:13;15.50;99.90
12811;DHT22;6470;47.654;7.896;2023-02-18T11:27:44;14.90;99.90
12811;DHT22;6470;47.654;7.896;2023-02-18T11:30:22;15.80;99.90
12811;DHT22;6470;47.654;7.896;2023-02-18T11:32:50;15.40;99.90
12811;DHT22;6470;47.654;7.896;2023-02-18T11:35:23;14.90;99.90
12811;DHT22;6470;47.654;7.896;2023-02-18T11:37:50;10.80;99.90
12811;DHT22;6470;47.654;7.896;2023-02-18T11:42:46;15.60;99.90
12811;DHT22;6470;47.654;7.896;2023-02-18T11:45:30;13.60;99.90
12811;DHT22;6470;47.654;7.896;2023-02-18T11:47:59;13.60;99.90
12811;DHT22;6470;47.654;7.896;2023-02-18T11:50:30;14.70;99.90
12811;DHT22;6470;47.654;7.896;2023-02-18T11:55:26;13.70;99.90
12811;DHT22;6470;47.654;7.896;2023-02-18T12:00:44;15.40;99.90
12811;DHT22;6470;47.654;7.896;2023-02-18T12:06:01;14.90;99.90
12811;DHT22;6470;47.654;7.896;2023-02-18T12:08:44;15.90;99.90
12811;DHT22;6470;47.654;7.896;2023-02-18T12:11:16;14.90;99.90
12811;DHT22;6470;47.654;7.896;2023-02-18T12:13:55;14.90;99.90
12811;DHT22;6470;47.654;7.896;2023-02-18T12:49:05;14.70;99.90
12811;DHT22;6470;47.654;7.896;2023-02-18T13:08:14;13.80;99.90
12811;DHT22;6470;47.654;7.896;2023-02-18T13:13:38;13.90;99.90
12811;DHT22;6470;47.654;7.896;2023-02-18T13:16:09;14.80;99.90
12811;DHT22;6470;47.654;7.896;2023-02-18T13:18:46;15.30;99.90
12811;DHT22;6470;47.654;7.896;2023-02-18T13:21:15;15.40;99.90
12811;DHT22;6470;47.654;7.896;2023-02-18T13:26:13;16.00;99.90
12811;DHT22;6470;47.654;7.896;2023-02-18T13:37:45;11.30;99.90
12811;DHT22;6470;47.654;7.896;2023-02-18T13:40:24;14.00;99.90
12811;DHT22;6470;47.654;7.896;2023-02-18T13:42:51;15.20;99.90
12811;DHT22;6470;47.654;7.896;2023-02-18T13:45:29;15.20;99.90
12811;DHT22;6470;47.654;7.896;2023-02-18T13:47:55;15.40;99.90
12811;DHT22;6470;47.654;7.896;2023-02-18T13:52:50;15.80;99.90
12811;DHT22;6470;47.654;7.896;2023-02-18T13:55:25;13.80;99.90
12811;DHT22;6470;47.654;7.896;2023-02-18T13:57:53;13.80;99.90
12811;DHT22;6470;47.654;7.896;2023-02-18T14:00:25;14.90;99.90
12811;DHT22;6470;47.654;7.896;2023-02-18T14:03:01;15.30;99.90
12811;DHT22;6470;47.654;7.896;2023-02-18T14:05:43;13.80;99.90
12811;DHT22;6470;47.654;7.896;2023-02-18T14:08:15;13.80;99.90
12811;DHT22;6470;47.654;7.896;2023-02-18T14:26:09;15.30;99.90
12811;DHT22;6470;47.654;7.896;2023-02-18T14:34:01;13.60;99.90
12811;DHT22;6470;47.654;7.896;2023-02-18T14:39:31;15.50;99.90
12811;DHT22;6470;47.654;7.896;2023-02-18T14:42:58;15.60;99.90
12811;DHT22;6470;47.654;7.896;2023-02-18T14:45:33;13.50;99.90
12811;DHT22;6470;47.654;7.896;2023-02-18T14:50:41;13.50;99.90
12811;DHT22;6470;47.654;7.896;2023-02-18T14:53:13;13.60;99.90
12811;DHT22;6470;47.654;7.896;2023-02-18T14:55:45;15.60;99.90
12811;DHT22;6470;47.654;7.896;2023-02-18T14:58:28;15.60;99.90
12811;DHT22;6470;47.654;7.896;2023-02-18T15:00:54;14.90;99.90
12811;DHT22;6470;47.654;7.896;2023-02-18T15:03:20;15.60;99.90
12811;DHT22;6470;47.654;7.896;2023-02-18T15:05:49;15.20;99.90
12811;DHT22;6470;47.654;7.896;2023-02-18T15:08:26;15.10;99.90
12811;DHT22;6470;47.654;7.896;2023-02-18T15:11:03;13.60;99.90
12811;DHT22;6470;47.654;7.896;2023-02-18T15:13:31;15.70;99.90
12811;DHT22;6470;47.654;7.896;2023-02-18T15:16:02;14.90;99.90
12811;DHT22;6470;47.654;7.896;2023-02-18T15:18:37;15.00;99.90
12811;DHT22;6470;47.654;7.896;2023-02-18T15:21:06;15.90;99.90
12811;DHT22;6470;47.654;7.896;2023-02-18T15:23:38;15.90;99.90
12811;DHT22;6470;47.654;7.896;2023-02-18T15:26:05;15.70;99.90
12811;DHT22;6470;47.654;7.896;2023-02-18T15:31:02;15.20;99.90
12811;DHT22;6470;47.654;7.896;2023-02-18T15:33:28;15.50;99.90
12811;DHT22;6470;47.654;7.896;2023-02-18T15:36:02;15.60;99.90
12811;DHT22;6470;47.654;7.896;2023-02-18T15:38:28;15.20;99.90
12811;DHT22;6470;47.654;7.896;2023-02-18T15:40:54;10.70;99.90
12811;DHT22;6470;47.654;7.896;2023-02-18T15:43:22;15.00;99.90
12811;DHT22;6470;47.654;7.896;2023-02-18T15:45:50;15.40;99.90
12811;DHT22;6470;47.654;7.896;2023-02-18T15:50:56;15.70;99.90
12811;DHT22;6470;47.654;7.896;2023-02-18T15:53:23;15.70;99.90
12811;DHT22;6470;47.654;7.896;2023-02-18T15:55:51;13.40;99.90
12811;DHT22;6470;47.654;7.896;2023-02-18T15:58:26;15.80;99.90
12811;DHT22;6470;47.654;7.896;2023-02-18T16:01:04;15.50;99.90
12811;DHT22;6470;47.654;7.896;2023-02-18T16:03:51;14.40;99.90
12811;DHT22;6470;47.654;7.896;2023-02-18T16:06:24;10.60;99.90
12811;DHT22;6470;47.654;7.896;2023-02-18T16:11:37;15.20;99.90
12811;DHT22;6470;47.654;7.896;2023-02-18T16:14:04;15.30;99.90
12811;DHT22;6470;47.654;7.896;2023-02-18T16:16:35;13.00;99.90
12811;DHT22;6470;47.654;7.896;2023-02-18T16:19:02;15.70;99.90
12811;DHT22;6470;47.654;7.896;2023-02-18T16:21:39;15.70;99.90
12811;DHT22;6470;47.654;7.896;2023-02-18T16:24:28;15.80;99.90
12811;DHT22;6470;47.654;7.896;2023-02-18T16:27:00;15.30;99.90
12811;DHT22;6470;47.654;7.896;2023-02-18T16:29:39;10.70;99.90
12811;DHT22;6470;47.654;7.896;2023-02-18T16:32:05;12.80;99.90
12811;DHT22;6470;47.654;7.896;2023-02-18T16:34:30;10.30;99.90
12811;DHT22;6470;47.654;7.896;2023-02-18T16:36:56;15.30;99.90
12811;DHT22;6470;47.654;7.896;2023-02-18T16:39:40;10.00;99.90
12811;DHT22;6470;47.654;7.896;2023-02-18T16:42:10;12.50;99.90
12811;DHT22;6470;47.654;7.896;2023-02-18T16:44:36;15.10;99.90
12811;DHT22;6470;47.654;7.896;2023-02-18T16:47:02;15.20;99.90
12811;DHT22;6470;47.654;7.896;2023-02-18T16:49:28;15.10;99.90
12811;DHT22;6470;47.654;7.896;2023-02-18T16:51:54;12.50;99.90
12811;DHT22;6470;47.654;7.896;2023-02-18T16:54:20;15.70;99.90
12811;DHT22;6470;47.654;7.896;2023-02-18T16:59:12;14.70;99.90
12811;DHT22;6470;47.654;7.896;2023-02-18T17:01:40;12.30;99.90
12811;DHT22;6470;47.654;7.896;2023-02-18T17:04:16;15.20;99.90
12811;DHT22;6470;47.654;7.896;2023-02-18T17:06:43;12.30;99.90
12811;DHT22;6470;47.654;7.896;2023-02-18T17:09:14;14.70;99.90
12811;DHT22;6470;47.654;7.896;2023-02-18T17:11:43;15.20;99.90
12811;DHT22;6470;47.654;7.896;2023-02-18T17:14:13;10.40;99.90
12811;DHT22;6470;47.654;7.896;2023-02-18T17:19:05;15.10;99.90
12811;DHT22;6470;47.654;7.896;2023-02-18T17:21:31;12.10;99.90
12811;DHT22;6470;47.654;7.896;2023-02-18T17:23:56;15.40;99.90
12811;DHT22;6470;47.654;7.896;2023-02-18T17:26:25;11.90;99.90
12811;DHT22;6470;47.654;7.896;2023-02-18T17:28:52;12.70;99.90
12811;DHT22;6470;47.654;7.896;2023-02-18T17:31:20;11.80;99.90
12811;DHT22;6470;47.654;7.896;2023-02-18T17:36:15;13.00;99.90
12811;DHT22;6470;47.654;7.896;2023-02-18T17:38:41;12.40;99.90
12811;DHT22;6470;47.654;7.896;2023-02-18T17:41:06;11.40;99.90
12811;DHT22;6470;47.654;7.896;2023-02-18T17:43:33;12.40;99.90
12811;DHT22;6470;47.654;7.896;2023-02-18T17:48:25;12.00;99.90
12811;DHT22;6470;47.654;7.896;2023-02-18T17:50:52;11.10;99.90
12811;DHT22;6470;47.654;7.896;2023-02-18T17:53:18;11.90;99.90
12811;DHT22;6470;47.654;7.896;2023-02-18T17:55:45;12.40;99.90
12811;DHT22;6470;47.654;7.896;2023-02-18T17:58:12;12.10;99.90
12811;DHT22;6470;47.654;7.896;2023-02-18T18:00:44;11.40;99.90
12811;DHT22;6470;47.654;7.896;2023-02-18T18:03:12;11.70;99.90
12811;DHT22;6470;47.654;7.896;2023-02-18T18:05:39;11.80;99.90
12811;DHT22;6470;47.654;7.896;2023-02-18T18:08:06;11.00;99.90
12811;DHT22;6470;47.654;7.896;2023-02-18T18:10:35;12.50;99.90
12811;DHT22;6470;47.654;7.896;2023-02-18T18:13:08;11.60;99.90
12811;DHT22;6470;47.654;7.896;2023-02-18T18:15:42;12.40;99.90
12811;DHT22;6470;47.654;7.896;2023-02-18T18:18:10;11.30;99.90
12811;DHT22;6470;47.654;7.896;2023-02-18T18:20:36;12.30;99.90
12811;DHT22;6470;47.654;7.896;2023-02-18T18:23:04;10.90;99.90
12811;DHT22;6470;47.654;7.896;2023-02-18T18:25:37;12.10;99.90
12811;DHT22;6470;47.654;7.896;2023-02-18T18:28:04;11.50;99.90
12811;DHT22;6470;47.654;7.896;2023-02-18T18:30:32;12.40;99.90
12811;DHT22;6470;47.654;7.896;2023-02-18T18:33:00;12.30;99.90
12811;DHT22;6470;47.654;7.896;2023-02-18T18:35:34;11.90;99.90
12811;DHT22;6470;47.654;7.896;2023-02-18T18:38:00;10.70;99.90
12811;DHT22;6470;47.654;7.896;2023-02-18T18:40:29;10.70;99.90
12811;DHT22;6470;47.654;7.896;2023-02-18T18:42:56;9.90;99.90
12811;DHT22;6470;47.654;7.896;2023-02-18T18:45:33;11.40;99.90
12811;DHT22;6470;47.654;7.896;2023-02-18T18:48:02;11.80;99.90
12811;DHT22;6470;47.654;7.896;2023-02-18T18:50:28;11.50;99.90
12811;DHT22;6470;47.654;7.896;2023-02-18T18:52:54;11.60;99.90
12811;DHT22;6470;47.654;7.896;2023-02-18T18:57:51;12.20;99.90
12811;DHT22;6470;47.654;7.896;2023-02-18T19:00:18;12.60;99.90
12811;DHT22;6470;47.654;7.896;2023-02-18T19:02:45;10.00;99.90
12811;DHT22;6470;47.654;7.896;2023-02-18T19:05:35;12.20;99.90
12811;DHT22;6470;47.654;7.896;2023-02-18T19:08:01;12.60;99.90
12811;DHT22;6470;47.654;7.896;2023-02-18T19:10:30;12.40;99.90
12811;DHT22;6470;47.654;7.896;2023-02-18T19:13:12;12.80;99.90
12811;DHT22;6470;47.654;7.896;2023-02-18T19:15:39;12.70;99.90
12811;DHT22;6470;47.654;7.896;2023-02-18T19:18:04;11.80;99.90
12811;DHT22;6470;47.654;7.896;2023-02-18T19:20:32;12.40;99.90
12811;DHT22;6470;47.654;7.896;2023-02-18T19:23:00;11.40;99.90
12811;DHT22;6470;47.654;7.896;2023-02-18T19:25:26;12.00;99.90
12811;DHT22;6470;47.654;7.896;2023-02-18T19:27:52;11.40;99.90
12811;DHT22;6470;47.654;7.896;2023-02-18T19:30:20;11.60;99.90
12811;DHT22;6470;47.654;7.896;2023-02-18T19:32:52;11.30;99.90
12811;DHT22;6470;47.654;7.896;2023-02-18T19:37:45;12.20;99.90
12811;DHT22;6470;47.654;7.896;2023-02-18T19:40:13;12.40;99.90
12811;DHT22;6470;47.654;7.896;2023-02-18T19:42:39;12.30;99.90
12811;DHT22;6470;47.654;7.896;2023-02-18T19:45:05;11.90;99.90
12811;DHT22;6470;47.654;7.896;2023-02-18T19:47:31;10.10;99.90
12811;DHT22;6470;47.654;7.896;2023-02-18T19:49:58;12.60;99.90
12811;DHT22;6470;47.654;7.896;2023-02-18T19:52:25;10.10;99.90
12811;DHT22;6470;47.654;7.896;2023-02-18T19:54:51;11.90;99.90
12811;DHT22;6470;47.654;7.896;2023-02-18T19:57:17;12.60;99.90
12811;DHT22;6470;47.654;7.896;2023-02-18T19:59:43;10.10;99.90